Time;durP1;ratioP1;P1;durP2;ratioP2;P2;SDS_P1;SDS_P2;PMS_P1;PMS_P2;Temp;Humidity;BMP_temperature;BMP_pressure;BME280_temperature;BME280_humidity;BME280_pressure;Samples;Min_cycle;Max_cycle;Signal;HPM_P1;HPM_P2
2023/08/07 00:02:09;;;;;;;4.88;3.58;;;16.10;99.90;;;;;;5045218;28;20453;-69
2023/08/07 00:04:34;;;;;;;5.10;3.40;;;16.10;99.90;;;;;;5044694;28;20029;-70
2023/08/07 00:07:00;;;;;;;5.38;3.35;;;16.10;99.90;;;;;;5046788;28;20438;-69
2023/08/07 00:09:25;;;;;;;4.60;3.00;;;16.10;99.90;;;;;;5044343;28;20033;-70
2023/08/07 00:11:51;;;;;;;7.55;3.60;;;16.10;99.90;;;;;;5051098;28;20376;-70
2023/08/07 00:14:16;;;;;;;8.82;3.55;;;16.10;99.90;;;;;;5044115;28;20112;-69
2023/08/07 00:16:42;;;;;;;5.85;3.53;;;16.10;99.90;;;;;;5045083;28;20021;-70
2023/08/07 00:19:07;;;;;;;6.03;3.50;;;16.10;99.90;;;;;;5043645;28;20104;-70
2023/08/07 00:21:35;;;;;;;5.25;3.78;;;16.10;99.90;;;;;;5043762;28;20056;-69
2023/08/07 00:24:01;;;;;;;8.13;4.13;;;16.10;99.90;;;;;;5046675;28;20021;-69
2023/08/07 00:26:27;;;;;;;4.05;3.10;;;16.10;99.90;;;;;;5047655;28;20398;-70
2023/08/07 00:28:52;;;;;;;4.93;4.32;;;16.10;99.90;;;;;;5032381;28;20121;-69
2023/08/07 00:31:18;;;;;;;4.28;3.70;;;16.10;99.90;;;;;;5041874;28;20017;-69
2023/08/07 00:33:43;;;;;;;6.13;3.58;;;16.10;99.90;;;;;;5046024;28;20029;-69
2023/08/07 00:36:09;;;;;;;5.47;3.42;;;16.10;99.90;;;;;;5038734;28;20122;-69
2023/08/07 00:38:34;;;;;;;5.25;3.75;;;16.10;99.90;;;;;;5047103;28;20017;-70
2023/08/07 00:41:00;;;;;;;6.97;3.53;;;16.10;99.90;;;;;;5047455;28;20025;-69
2023/08/07 00:43:25;;;;;;;10.88;4.20;;;16.10;99.90;;;;;;5041132;28;20025;-69
2023/08/07 00:45:51;;;;;;;4.03;3.55;;;16.10;99.90;;;;;;5043988;28;20021;-69
2023/08/07 00:48:17;;;;;;;6.90;4.47;;;16.10;99.90;;;;;;5043504;28;20029;-69
2023/08/07 00:50:45;;;;;;;5.40;3.70;;;16.00;99.90;;;;;;5035337;28;20078;-69
2023/08/07 00:53:11;;;;;;;6.90;4.95;;;16.00;99.90;;;;;;5044110;28;20064;-69
2023/08/07 00:55:37;;;;;;;5.13;4.28;;;16.00;99.90;;;;;;5047506;28;20329;-69
2023/08/07 00:58:03;;;;;;;6.75;3.80;;;16.00;99.90;;;;;;5037938;28;20388;-69
2023/08/07 01:00:30;;;;;;;5.47;3.45;;;15.90;99.90;;;;;;5048608;28;20044;-69
2023/08/07 01:02:56;;;;;;;4.82;2.92;;;15.80;99.90;;;;;;5036151;28;20025;-69
2023/08/07 01:05:26;;;;;;;5.75;2.97;;;15.80;99.90;;;;;;5046900;28;20388;-70
2023/08/07 01:07:54;;;;;;;8.80;3.35;;;15.70;99.90;;;;;;5039166;28;20108;-70
2023/08/07 01:10:37;;;;;;;5.28;1.90;;;15.50;99.90;;;;;;5043523;28;20029;-70
2023/08/07 01:13:16;;;;;;;5.82;2.55;;;15.40;99.90;;;;;;5044690;28;20057;-70
2023/08/07 01:15:42;;;;;;;3.50;2.78;;;15.20;99.90;;;;;;5032402;28;20459;-70
2023/08/07 01:18:08;;;;;;;5.35;2.72;;;15.20;99.90;;;;;;5031678;28;20025;-70
2023/08/07 01:20:34;;;;;;;5.13;2.60;;;15.20;99.90;;;;;;5035462;28;20036;-69
2023/08/07 01:23:00;;;;;;;5.80;3.03;;;15.10;99.90;;;;;;5037260;28;20120;-69
2023/08/07 01:25:26;;;;;;;4.05;2.42;;;15.10;99.90;;;;;;5050837;28;20179;-70
2023/08/07 01:28:17;;;;;;;3.60;1.90;;;15.00;99.90;;;;;;5045549;28;20021;-70
2023/08/07 01:30:48;;;;;;;4.85;3.03;;;15.00;99.90;;;;;;5040771;28;21382;-70
2023/08/07 01:33:32;;;;;;;3.22;2.28;;;14.90;99.90;;;;;;5036246;28;20057;-70
2023/08/07 01:36:01;;;;;;;6.10;2.92;;;14.90;99.90;;;;;;5049069;28;20035;-70
2023/08/07 01:38:28;;;;;;;2.75;2.10;;;14.90;99.90;;;;;;5042668;28;20029;-71
2023/08/07 01:40:54;;;;;;;4.82;2.60;;;14.90;99.90;;;;;;5046869;28;20128;-71
2023/08/07 01:43:19;;;;;;;2.88;2.50;;;15.00;99.90;;;;;;5047875;28;20112;-71
2023/08/07 01:45:45;;;;;;;6.40;2.78;;;15.00;99.90;;;;;;5042373;28;20566;-72
2023/08/07 01:48:11;;;;;;;6.95;3.42;;;15.00;99.90;;;;;;5041475;28;20044;-72
2023/08/07 01:50:38;;;;;;;4.68;3.30;;;15.00;99.90;;;;;;5033154;28;20112;-72
2023/08/07 01:53:05;;;;;;;8.48;3.17;;;15.00;99.90;;;;;;5050430;28;20029;-71
2023/08/07 01:55:31;;;;;;;8.48;4.65;;;15.00;99.90;;;;;;5050086;28;20061;-70
2023/08/07 01:57:56;;;;;;;5.95;3.30;;;15.10;99.90;;;;;;5046538;28;20052;-70
2023/08/07 02:00:22;;;;;;;5.55;4.47;;;15.10;99.90;;;;;;5036205;28;20648;-70
2023/08/07 02:02:48;;;;;;;3.97;3.55;;;15.10;99.90;;;;;;5041141;28;20057;-70
2023/08/07 02:05:14;;;;;;;5.68;3.70;;;15.10;99.90;;;;;;5041354;28;20029;-70
2023/08/07 02:07:40;;;;;;;7.38;4.00;;;15.20;99.90;;;;;;5039538;28;20032;-70
2023/08/07 02:10:06;;;;;;;6.55;3.53;;;15.20;99.90;;;;;;5044961;28;20039;-70
2023/08/07 02:12:32;;;;;;;6.38;3.92;;;15.20;99.90;;;;;;5039541;28;20028;-70
2023/08/07 02:14:59;;;;;;;3.78;3.47;;;15.10;99.90;;;;;;5035316;28;20028;-70
2023/08/07 02:17:25;;;;;;;6.03;3.88;;;15.10;99.90;;;;;;5047260;28;20100;-70
2023/08/07 02:19:51;;;;;;;5.63;4.35;;;15.20;99.90;;;;;;5030904;28;20063;-70
2023/08/07 02:22:16;;;;;;;5.43;4.72;;;15.10;99.90;;;;;;5040029;28;20104;-70
2023/08/07 02:24:42;;;;;;;9.90;4.78;;;15.10;99.90;;;;;;5043918;28;20047;-70
2023/08/07 02:27:07;;;;;;;6.13;5.32;;;15.10;99.90;;;;;;5046737;28;20033;-70
2023/08/07 02:29:36;;;;;;;7.43;4.97;;;15.10;99.90;;;;;;5033051;28;20025;-70
2023/08/07 02:32:02;;;;;;;5.40;4.18;;;15.10;99.90;;;;;;5042596;28;20025;-70
2023/08/07 02:34:31;;;;;;;8.68;3.95;;;15.20;99.90;;;;;;5038780;28;20110;-70
2023/08/07 02:36:57;;;;;;;9.65;5.30;;;15.20;99.90;;;;;;5039794;28;20087;-70
2023/08/07 02:39:22;;;;;;;4.60;4.13;;;15.20;99.90;;;;;;5047692;28;20475;-70
2023/08/07 02:41:48;;;;;;;7.45;4.78;;;15.20;99.90;;;;;;5037649;28;20109;-70
2023/08/07 02:44:13;;;;;;;6.70;4.93;;;15.20;99.90;;;;;;5030286;28;20060;-70
2023/08/07 02:46:39;;;;;;;5.28;4.70;;;15.20;99.90;;;;;;5047556;28;20021;-70
2023/08/07 02:49:04;;;;;;;7.63;4.50;;;15.20;99.90;;;;;;5036229;28;20032;-70
2023/08/07 02:51:30;;;;;;;6.32;5.55;;;15.20;99.90;;;;;;5043830;28;20017;-70
2023/08/07 02:53:56;;;;;;;7.63;5.90;;;15.20;99.90;;;;;;5038090;28;20387;-70
2023/08/07 02:56:21;;;;;;;7.78;6.03;;;15.20;99.90;;;;;;5041880;28;20021;-70
2023/08/07 02:58:47;;;;;;;8.52;5.70;;;15.20;99.90;;;;;;5033315;28;20032;-70
2023/08/07 03:01:13;;;;;;;10.10;6.28;;;15.20;99.90;;;;;;5042095;28;20423;-70
2023/08/07 03:03:38;;;;;;;6.65;6.05;;;15.20;99.90;;;;;;5031861;28;20033;-70
2023/08/07 03:06:04;;;;;;;11.35;6.82;;;15.20;99.90;;;;;;5035682;28;20428;-70
2023/08/07 03:08:29;;;;;;;9.50;7.00;;;15.20;99.90;;;;;;5033503;28;20112;-70
2023/08/07 03:10:57;;;;;;;8.52;6.38;;;15.20;99.90;;;;;;5043120;28;20112;-70
2023/08/07 03:13:24;;;;;;;10.48;6.43;;;15.10;99.90;;;;;;5032507;28;20029;-70
2023/08/07 03:15:50;;;;;;;6.38;5.70;;;15.10;99.90;;;;;;5044009;28;20387;-70
2023/08/07 03:18:18;;;;;;;6.47;4.55;;;15.10;99.90;;;;;;5049340;28;20021;-70
2023/08/07 03:20:44;;;;;;;8.00;4.65;;;15.10;99.90;;;;;;5039368;28;20421;-70
2023/08/07 03:23:10;;;;;;;5.68;4.60;;;15.10;99.90;;;;;;5044185;28;20017;-70
2023/08/07 03:25:36;;;;;;;5.00;4.50;;;15.10;99.90;;;;;;5047613;28;20032;-70
2023/08/07 03:28:02;;;;;;;7.60;4.35;;;15.10;99.90;;;;;;5030559;28;20041;-70
2023/08/07 03:30:28;;;;;;;8.02;4.80;;;15.10;99.90;;;;;;5033962;28;20124;-70
2023/08/07 03:32:53;;;;;;;4.55;3.78;;;15.10;99.90;;;;;;5030064;28;20566;-70
2023/08/07 03:35:19;;;;;;;6.53;4.82;;;15.10;99.90;;;;;;5042256;28;20036;-70
2023/08/07 03:37:44;;;;;;;6.32;4.20;;;15.10;99.90;;;;;;5038129;28;20075;-70
2023/08/07 03:40:10;;;;;;;5.55;3.67;;;15.10;99.90;;;;;;5048393;28;20025;-70
2023/08/07 03:42:36;;;;;;;10.20;4.10;;;15.10;99.90;;;;;;5040041;28;20017;-70
2023/08/07 03:45:01;;;;;;;7.75;3.70;;;15.10;99.90;;;;;;5033566;28;20033;-70
2023/08/07 03:47:27;;;;;;;5.25;3.20;;;15.00;99.90;;;;;;5046061;28;20483;-70
2023/08/07 03:49:52;;;;;;;6.28;3.53;;;15.00;99.90;;;;;;5035644;28;20036;-70
2023/08/07 03:52:18;;;;;;;6.85;3.00;;;15.00;99.90;;;;;;5043956;28;20024;-70
2023/08/07 03:54:43;;;;;;;6.10;2.55;;;15.00;99.90;;;;;;5051357;28;20525;-70
2023/08/07 03:57:10;;;;;;;6.00;2.88;;;15.00;99.90;;;;;;5044590;28;20037;-70
2023/08/07 03:59:36;;;;;;;9.13;3.42;;;15.10;99.90;;;;;;5038559;28;20022;-70
2023/08/07 04:02:01;;;;;;;9.63;3.40;;;15.10;99.90;;;;;;5042039;28;20491;-70
2023/08/07 04:04:27;;;;;;;8.93;3.58;;;15.10;99.90;;;;;;5052709;28;20033;-70
2023/08/07 04:06:52;;;;;;;6.70;4.03;;;15.10;99.90;;;;;;5043364;28;20046;-70
2023/08/07 04:09:18;;;;;;;6.35;3.50;;;15.10;99.90;;;;;;5036761;28;20025;-70
2023/08/07 04:11:44;;;;;;;5.70;3.58;;;15.10;99.90;;;;;;5050447;28;20071;-70
2023/08/07 04:14:09;;;;;;;5.00;3.47;;;15.00;99.90;;;;;;5043614;28;20091;-70
2023/08/07 04:16:36;;;;;;;8.98;3.70;;;15.00;99.90;;;;;;5049324;28;20120;-70
2023/08/07 04:19:02;;;;;;;3.92;3.53;;;15.00;99.90;;;;;;5042527;28;20021;-70
2023/08/07 04:21:28;;;;;;;6.65;3.08;;;15.00;99.90;;;;;;5045655;28;20494;-70
2023/08/07 04:23:53;;;;;;;10.52;3.15;;;15.00;99.90;;;;;;5042363;28;20017;-70
2023/08/07 04:26:19;;;;;;;8.40;3.70;;;15.00;99.90;;;;;;5037542;28;20037;-70
2023/08/07 04:28:44;;;;;;;7.35;4.22;;;15.00;99.90;;;;;;5044035;28;20075;-70
2023/08/07 04:31:10;;;;;;;6.80;4.07;;;15.00;99.90;;;;;;5046216;28;20108;-70
2023/08/07 04:33:36;;;;;;;8.02;4.30;;;15.00;99.90;;;;;;5042310;28;20059;-71
2023/08/07 04:36:01;;;;;;;9.07;3.92;;;15.00;99.90;;;;;;5043322;28;20494;-70
2023/08/07 04:38:27;;;;;;;5.63;3.33;;;15.00;99.90;;;;;;5039659;28;20083;-69
2023/08/07 04:40:53;;;;;;;3.75;2.85;;;15.10;99.90;;;;;;5038030;28;20506;-70
2023/08/07 04:43:22;;;;;;;6.43;3.67;;;15.10;99.90;;;;;;5044303;28;20021;-68
2023/08/07 04:45:48;;;;;;;4.68;3.50;;;15.10;99.90;;;;;;5038365;28;20055;-68
2023/08/07 04:48:14;;;;;;;4.25;3.08;;;15.10;99.90;;;;;;5032416;28;20022;-68
2023/08/07 04:50:40;;;;;;;8.40;3.80;;;15.10;99.90;;;;;;5049995;28;20032;-68
2023/08/07 04:53:06;;;;;;;8.20;3.42;;;15.10;99.90;;;;;;5047866;28;20430;-68
2023/08/07 04:55:32;;;;;;;4.72;3.20;;;15.10;99.90;;;;;;5048245;28;20025;-68
2023/08/07 04:57:58;;;;;;;5.32;3.85;;;15.10;99.90;;;;;;5048297;28;20060;-68
2023/08/07 05:00:24;;;;;;;9.07;4.45;;;15.10;99.90;;;;;;5050282;28;20029;-68
2023/08/07 05:02:50;;;;;;;5.78;3.70;;;15.10;99.90;;;;;;5046332;28;20020;-68
2023/08/07 05:05:16;;;;;;;7.53;3.53;;;15.10;99.90;;;;;;5050533;28;20392;-68
2023/08/07 05:07:42;;;;;;;8.20;3.63;;;15.10;99.90;;;;;;5042194;28;20025;-68
2023/08/07 05:10:09;;;;;;;6.18;3.92;;;15.10;99.90;;;;;;5041517;28;20045;-68
2023/08/07 05:12:34;;;;;;;9.73;4.15;;;15.10;99.90;;;;;;5039915;28;20553;-68
2023/08/07 05:15:00;;;;;;;8.80;4.78;;;15.10;99.90;;;;;;5050341;28;20033;-69
2023/08/07 05:17:26;;;;;;;6.57;4.03;;;15.10;99.90;;;;;;5036688;28;20514;-69
2023/08/07 05:19:51;;;;;;;5.80;4.20;;;15.10;99.90;;;;;;5040353;28;20021;-69
2023/08/07 05:22:17;;;;;;;6.32;3.92;;;15.10;99.90;;;;;;5042729;28;20047;-69
2023/08/07 05:24:44;;;;;;;7.88;4.57;;;15.10;99.90;;;;;;5044101;28;20483;-68
2023/08/07 05:27:10;;;;;;;9.40;3.75;;;15.10;99.90;;;;;;5044142;28;20025;-68
2023/08/07 05:29:43;;;;;;;8.57;3.90;;;15.10;99.90;;;;;;5047807;28;20028;-68
2023/08/07 05:32:09;;;;;;;7.85;4.53;;;15.10;99.90;;;;;;5047261;28;20122;-69
2023/08/07 05:34:35;;;;;;;8.93;4.22;;;15.20;99.90;;;;;;5043419;28;20033;-69
2023/08/07 05:37:00;;;;;;;6.53;4.85;;;15.20;99.90;;;;;;5045708;28;20066;-69
2023/08/07 05:39:26;;;;;;;9.10;5.88;;;15.10;99.90;;;;;;5044540;28;20021;-69
2023/08/07 05:41:53;;;;;;;9.02;5.25;;;15.10;99.90;;;;;;5049342;28;20028;-69
2023/08/07 05:44:19;;;;;;;7.97;3.97;;;15.20;99.90;;;;;;5045644;28;20025;-69
2023/08/07 05:46:44;;;;;;;7.85;5.72;;;15.30;99.90;;;;;;5044661;28;20032;-69
2023/08/07 05:49:10;;;;;;;5.97;4.85;;;15.30;99.90;;;;;;5036258;28;20026;-68
2023/08/07 05:51:35;;;;;;;6.20;4.90;;;15.40;99.90;;;;;;5038087;28;20499;-71
2023/08/07 05:54:01;;;;;;;7.57;4.40;;;15.40;99.90;;;;;;5041488;28;20446;-71
2023/08/07 05:56:27;;;;;;;6.55;4.93;;;15.40;99.90;;;;;;5042494;28;20041;-71
2023/08/07 05:58:52;;;;;;;11.95;4.82;;;15.40;99.90;;;;;;5041157;28;20033;-71
2023/08/07 06:01:18;;;;;;;9.35;4.88;;;15.40;99.90;;;;;;5042622;28;20025;-72
2023/08/07 06:03:43;;;;;;;9.65;4.65;;;15.30;99.90;;;;;;5050664;28;20375;-72
2023/08/07 06:06:09;;;;;;;7.53;4.72;;;15.20;99.90;;;;;;5050501;28;20103;-72
2023/08/07 06:08:34;;;;;;;7.25;5.22;;;15.10;99.90;;;;;;5042041;28;20052;-72
2023/08/07 06:11:03;;;;;;;8.75;5.00;;;15.10;99.90;;;;;;5043082;28;20033;-72
2023/08/07 06:13:29;;;;;;;7.97;5.18;;;15.10;99.90;;;;;;5041941;28;20444;-71
2023/08/07 06:15:54;;;;;;;9.57;4.70;;;15.10;99.90;;;;;;5050929;28;20032;-71
2023/08/07 06:18:20;;;;;;;9.02;4.80;;;15.10;99.90;;;;;;5049655;28;20017;-70
2023/08/07 06:20:46;;;;;;;11.05;4.57;;;15.10;99.90;;;;;;5038277;28;20029;-70
2023/08/07 06:23:12;;;;;;;4.25;3.85;;;15.10;99.90;;;;;;5045221;28;20045;-70
2023/08/07 06:25:37;;;;;;;5.95;4.28;;;15.10;99.90;;;;;;5046604;28;20029;-71
2023/08/07 06:28:03;;;;;;;6.32;4.13;;;15.10;99.90;;;;;;5041960;28;20583;-71
2023/08/07 06:30:30;;;;;;;13.27;5.25;;;15.10;99.90;;;;;;5042146;28;20082;-70
2023/08/07 06:32:56;;;;;;;5.57;4.28;;;15.20;99.90;;;;;;5038914;28;20359;-70
2023/08/07 06:35:23;;;;;;;6.97;3.78;;;15.10;99.90;;;;;;5049188;28;20033;-70
2023/08/07 06:37:49;;;;;;;8.63;3.70;;;15.00;99.90;;;;;;5042674;28;20025;-70
2023/08/07 06:40:16;;;;;;;6.68;4.93;;;15.00;99.90;;;;;;5046608;28;20112;-70
2023/08/07 06:42:42;;;;;;;7.18;4.00;;;15.00;99.90;;;;;;5041762;28;20017;-69
2023/08/07 06:45:08;;;;;;;11.93;5.07;;;14.90;99.90;;;;;;5042793;28;20571;-69
2023/08/07 06:47:38;;;;;;;6.32;3.50;;;15.00;99.90;;;;;;5042189;28;20033;-69
2023/08/07 06:50:05;;;;;;;5.88;4.40;;;14.90;99.90;;;;;;5042677;28;20387;-70
2023/08/07 06:52:30;;;;;;;4.93;3.88;;;14.90;99.90;;;;;;5039072;28;20402;-69
2023/08/07 06:54:57;;;;;;;7.20;4.85;;;14.90;99.90;;;;;;5042270;28;20033;-69
2023/08/07 06:57:23;;;;;;;8.30;4.10;;;14.90;99.90;;;;;;5042829;28;20055;-69
2023/08/07 06:59:49;;;;;;;13.60;4.43;;;14.90;99.90;;;;;;5046842;28;20025;-71
2023/08/07 07:02:15;;;;;;;8.80;5.28;;;14.90;99.90;;;;;;5038572;28;20021;-71
2023/08/07 07:04:44;;;;;;;8.23;4.90;;;15.00;99.90;;;;;;5045004;28;20033;-71
2023/08/07 07:07:13;;;;;;;6.28;4.28;;;15.10;99.90;;;;;;5043606;28;20032;-71
2023/08/07 07:09:39;;;;;;;6.82;4.07;;;15.20;99.90;;;;;;5047875;28;20032;-72
2023/08/07 07:12:06;;;;;;;7.13;4.90;;;15.30;99.90;;;;;;5041343;28;20446;-71
2023/08/07 07:14:33;;;;;;;7.22;4.47;;;15.40;99.90;;;;;;5034696;28;20037;-71
2023/08/07 07:17:00;;;;;;;8.90;4.22;;;15.50;99.90;;;;;;5038543;28;20042;-71
2023/08/07 07:19:26;;;;;;;13.18;5.53;;;15.50;99.90;;;;;;5046080;28;20029;-71
2023/08/07 07:21:55;;;;;;;6.53;3.80;;;15.60;99.90;;;;;;5048210;28;20083;-71
2023/08/07 07:24:23;;;;;;;4.93;3.15;;;15.70;99.90;;;;;;5048376;28;20017;-73
2023/08/07 07:26:49;;;;;;;10.20;3.92;;;15.60;99.90;;;;;;5050779;28;20021;-73
2023/08/07 07:29:18;;;;;;;8.20;3.03;;;15.60;99.90;;;;;;5051036;28;20025;-72
2023/08/07 07:31:44;;;;;;;4.35;3.60;;;15.70;99.90;;;;;;5047645;28;20028;-72
2023/08/07 07:34:10;;;;;;;6.88;2.97;;;15.70;99.90;;;;;;5046314;28;20025;-72
2023/08/07 07:36:35;;;;;;;3.28;2.42;;;15.70;99.90;;;;;;5046061;28;20028;-70
2023/08/07 07:39:01;;;;;;;3.67;2.97;;;15.60;99.90;;;;;;5041998;28;20070;-70
2023/08/07 07:41:27;;;;;;;3.17;2.65;;;15.70;99.90;;;;;;5047961;28;20469;-70
2023/08/07 07:43:53;;;;;;;4.95;2.65;;;15.90;99.90;;;;;;5048617;28;20029;-70
2023/08/07 07:46:18;;;;;;;3.33;2.58;;;16.00;99.90;;;;;;5051877;28;20051;-70
2023/08/07 07:48:44;;;;;;;5.85;2.30;;;16.00;99.90;;;;;;5049871;28;20641;-70
2023/08/07 07:51:10;;;;;;;4.80;3.00;;;16.10;99.90;;;;;;5048848;28;20029;-70
2023/08/07 07:53:35;;;;;;;3.15;2.85;;;16.20;99.90;;;;;;5042893;28;20083;-70
2023/08/07 07:56:01;;;;;;;2.65;2.00;;;16.30;99.90;;;;;;5094789;22;20366;-76
2023/08/07 07:58:26;;;;;;;6.93;2.47;;;16.40;99.90;;;;;;5071580;28;20024;-76
2023/08/07 08:00:53;;;;;;;4.65;1.85;;;16.50;99.90;;;;;;5071492;28;20035;-75
2023/08/07 08:03:20;;;;;;;7.82;1.73;;;16.60;99.90;;;;;;5071245;28;20042;-77
2023/08/07 08:05:48;;;;;;;2.97;2.00;;;16.70;99.90;;;;;;5067245;28;20086;-75
2023/08/07 08:08:14;;;;;;;4.35;2.10;;;16.80;99.90;;;;;;5071947;28;20032;-74
2023/08/07 08:10:39;;;;;;;3.22;1.92;;;17.10;99.90;;;;;;5070591;28;20391;-75
2023/08/07 08:13:05;;;;;;;3.00;1.80;;;17.40;99.90;;;;;;5069869;28;20467;-76
2023/08/07 08:15:30;;;;;;;2.45;1.30;;;17.60;99.90;;;;;;5071467;28;20036;-76
2023/08/07 08:17:56;;;;;;;5.85;2.22;;;17.80;99.90;;;;;;5070203;28;20020;-75
2023/08/07 08:20:22;;;;;;;4.28;1.83;;;17.90;99.90;;;;;;5071686;28;20024;-72
2023/08/07 08:22:47;;;;;;;2.45;1.20;;;17.90;99.90;;;;;;5069667;28;20498;-72
2023/08/07 08:25:13;;;;;;;11.68;3.05;;;17.90;99.90;;;;;;5068835;28;20028;-72
2023/08/07 08:27:39;;;;;;;5.47;2.05;;;17.90;99.90;;;;;;5068262;28;20024;-73
2023/08/07 08:30:06;;;;;;;2.13;1.92;;;18.00;99.90;;;;;;5071319;28;20025;-73
2023/08/07 08:32:31;;;;;;;5.40;2.08;;;17.80;99.90;;;;;;5070170;28;20043;-78
2023/08/07 08:34:57;;;;;;;4.43;1.95;;;17.80;99.90;;;;;;5069237;28;20032;-78
2023/08/07 08:37:22;;;;;;;1.60;1.23;;;17.90;99.90;;;;;;5074612;28;20052;-79
2023/08/07 08:39:48;;;;;;;2.88;1.35;;;17.90;99.90;;;;;;5073340;28;20040;-78
2023/08/07 08:42:15;;;;;;;3.65;1.73;;;17.90;99.90;;;;;;5073006;28;20021;-79
2023/08/07 08:44:46;;;;;;;3.45;1.30;;;17.90;99.90;;;;;;5075554;28;20021;-80
2023/08/07 08:47:12;;;;;;;4.78;1.95;;;17.80;99.90;;;;;;5065470;28;20025;-80
2023/08/07 08:49:46;;;;;;;3.58;1.50;;;17.70;99.90;;;;;;5069550;28;20024;-81
2023/08/07 08:52:12;;;;;;;4.78;1.83;;;17.70;99.90;;;;;;5062677;28;20020;-79
2023/08/07 08:54:38;;;;;;;2.17;1.15;;;17.80;99.90;;;;;;5068499;28;20024;-79
2023/08/07 08:57:05;;;;;;;2.65;0.90;;;18.00;99.90;;;;;;5072455;28;20029;-80
2023/08/07 08:59:30;;;;;;;2.72;1.35;;;18.00;99.90;;;;;;5054843;28;20459;-79
2023/08/07 09:01:56;;;;;;;3.03;1.20;;;18.10;99.90;;;;;;5073511;28;20060;-79
2023/08/07 09:04:22;;;;;;;2.00;1.27;;;18.20;99.90;;;;;;5072092;28;20020;-80
2023/08/07 09:06:47;;;;;;;5.70;0.90;;;18.00;99.90;;;;;;5071167;28;20028;-78
2023/08/07 09:09:14;;;;;;;1.23;0.88;;;18.00;99.90;;;;;;5066784;28;20029;-77
2023/08/07 09:11:45;;;;;;;2.53;1.33;;;17.90;99.90;;;;;;5072714;28;20549;-77
2023/08/07 09:14:21;;;;;;;2.25;0.90;;;17.80;99.90;;;;;;5068981;28;20063;-77
2023/08/07 09:16:48;;;;;;;3.28;1.08;;;17.70;99.90;;;;;;5070916;28;20032;-78
2023/08/07 09:19:14;;;;;;;1.52;0.85;;;17.50;99.90;;;;;;5069036;28;20081;-77
2023/08/07 09:21:40;;;;;;;2.72;0.80;;;17.40;99.90;;;;;;5066495;28;20028;-77
2023/08/07 09:24:05;;;;;;;7.13;1.92;;;17.30;99.90;;;;;;5064986;28;20514;-77
2023/08/07 09:26:35;;;;;;;3.70;0.80;;;17.40;99.90;;;;;;5070106;28;20025;-76
2023/08/07 09:29:02;;;;;;;3.30;1.10;;;17.60;99.90;;;;;;5065118;28;20029;-76
2023/08/07 09:31:30;;;;;;;7.50;1.33;;;17.80;99.90;;;;;;5061164;28;20028;-75
2023/08/07 09:34:02;;;;;;;7.13;1.58;;;17.80;99.90;;;;;;5067856;28;20343;-77
2023/08/07 09:36:30;;;;;;;3.83;1.27;;;17.80;99.90;;;;;;5070569;28;20135;-76
2023/08/07 09:38:55;;;;;;;7.03;1.50;;;17.60;99.90;;;;;;5070111;28;20024;-76
2023/08/07 09:41:21;;;;;;;6.38;2.05;;;17.30;99.90;;;;;;5067589;28;20395;-77
2023/08/07 09:43:47;;;;;;;2.33;1.50;;;17.10;99.90;;;;;;5070859;28;20031;-76
2023/08/07 09:46:13;;;;;;;3.25;1.25;;;17.00;99.90;;;;;;5068419;28;20084;-76
2023/08/07 09:48:44;;;;;;;3.95;1.10;;;16.90;99.90;;;;;;5068108;28;20028;-75
2023/08/07 09:51:10;;;;;;;5.30;1.38;;;16.70;99.90;;;;;;5069129;28;20028;-75
2023/08/07 09:53:36;;;;;;;3.55;1.02;;;16.40;99.90;;;;;;5065100;28;20048;-75
2023/08/07 09:56:02;;;;;;;2.25;0.95;;;16.20;99.90;;;;;;5068614;28;20036;-76
2023/08/07 09:58:29;;;;;;;3.17;0.93;;;16.10;99.90;;;;;;5064204;28;20075;-76
2023/08/07 10:00:59;;;;;;;5.28;1.10;;;16.20;99.90;;;;;;5057189;28;20516;-75
2023/08/07 10:03:25;;;;;;;6.05;1.40;;;16.20;99.90;;;;;;5070411;28;20040;-76
2023/08/07 10:05:51;;;;;;;7.68;2.13;;;16.30;99.90;;;;;;5069160;28;20032;-75
2023/08/07 10:08:18;;;;;;;4.10;1.63;;;16.40;99.90;;;;;;5068638;28;20020;-75
2023/08/07 10:10:46;;;;;;;3.92;1.35;;;16.50;99.90;;;;;;5068378;28;20032;-77
2023/08/07 10:13:14;;;;;;;4.28;1.98;;;16.60;99.90;;;;;;5062888;28;20024;-77
2023/08/07 10:15:41;;;;;;;9.82;2.45;;;16.70;99.90;;;;;;5070085;28;20025;-77
2023/08/07 10:18:08;;;;;;;9.00;2.15;;;16.80;99.90;;;;;;5069860;28;20020;-77
2023/08/07 10:20:34;;;;;;;3.50;2.40;;;17.00;99.90;;;;;;5069897;28;20070;-76
2023/08/07 10:23:06;;;;;;;2.75;2.00;;;17.30;99.90;;;;;;5070405;28;20021;-77
2023/08/07 10:25:33;;;;;;;8.88;2.30;;;17.60;99.90;;;;;;5070014;28;20103;-77
2023/08/07 10:28:00;;;;;;;9.68;2.28;;;17.70;99.90;;;;;;5070026;28;20025;-77
2023/08/07 10:30:26;;;;;;;4.60;1.73;;;17.70;99.90;;;;;;5069090;28;20035;-77
2023/08/07 10:32:53;;;;;;;9.27;3.78;;;17.80;99.90;;;;;;5069673;28;20032;-77
2023/08/07 10:35:46;;;;;;;5.07;2.15;;;17.80;99.90;;;;;;5069592;28;20033;-78
2023/08/07 10:38:12;;;;;;;6.22;2.47;;;17.90;99.90;;;;;;5063915;28;20041;-76
2023/08/07 10:40:59;;;;;;;4.40;2.20;;;18.00;99.90;;;;;;5070061;28;20377;-76
2023/08/07 10:43:27;;;;;;;4.55;2.55;;;18.00;99.90;;;;;;5062123;28;20567;-77
2023/08/07 10:45:53;;;;;;;9.52;2.53;;;18.10;99.90;;;;;;5069172;28;20027;-77
2023/08/07 10:48:20;;;;;;;9.60;2.38;;;18.20;99.90;;;;;;5069544;28;20418;-77
2023/08/07 10:50:57;;;;;;;7.47;2.97;;;18.40;99.90;;;;;;5068984;28;20136;-76
2023/08/07 10:53:30;;;;;;;8.43;2.17;;;18.50;99.90;;;;;;5065236;28;20555;-77
2023/08/07 10:55:57;;;;;;;7.18;1.67;;;18.40;99.90;;;;;;5071288;28;20452;-77
2023/08/07 10:58:24;;;;;;;4.43;1.63;;;18.30;99.90;;;;;;5074197;28;20423;-77
2023/08/07 11:00:51;;;;;;;6.45;2.78;;;18.10;99.90;;;;;;5072410;28;20020;-77
2023/08/07 11:03:28;;;;;;;5.05;2.28;;;17.90;99.90;;;;;;5074025;28;20512;-78
2023/08/07 11:05:58;;;;;;;5.63;2.00;;;17.70;99.90;;;;;;5072543;28;20555;-76
2023/08/07 11:08:24;;;;;;;5.78;1.65;;;17.90;99.90;;;;;;5074249;28;20478;-76
2023/08/07 11:10:53;;;;;;;12.40;3.20;;;18.10;99.90;;;;;;5073753;28;20066;-76
2023/08/07 11:13:20;;;;;;;4.15;1.58;;;18.30;99.90;;;;;;5073710;28;20031;-76
2023/08/07 11:15:46;;;;;;;7.68;1.42;;;18.40;99.90;;;;;;5071095;28;20785;-77
2023/08/07 11:18:11;;;;;;;8.20;1.67;;;18.30;99.90;;;;;;5071985;28;20119;-75
2023/08/07 11:20:38;;;;;;;4.45;1.13;;;18.10;99.90;;;;;;5073009;28;20111;-74
2023/08/07 11:23:05;;;;;;;3.60;1.30;;;17.90;99.90;;;;;;5070968;28;20033;-74
2023/08/07 11:25:30;;;;;;;4.88;0.77;;;17.80;99.90;;;;;;5073331;28;20075;-75
2023/08/07 11:27:56;;;;;;;3.17;0.95;;;17.60;99.90;;;;;;5072607;28;20084;-75
2023/08/07 11:30:21;;;;;;;3.47;0.65;;;17.40;99.90;;;;;;5070994;28;20043;-75
2023/08/07 11:32:47;;;;;;;3.70;1.35;;;17.40;99.90;;;;;;5070993;28;20500;-76
2023/08/07 11:35:13;;;;;;;4.78;0.93;;;17.40;99.90;;;;;;5072678;28;20020;-75
2023/08/07 11:37:46;;;;;;;2.38;1.08;;;17.50;99.90;;;;;;5072162;28;20032;-75
2023/08/07 11:40:11;;;;;;;6.90;0.80;;;17.60;99.90;;;;;;5072276;28;20028;-75
2023/08/07 11:42:37;;;;;;;6.85;1.33;;;17.60;99.90;;;;;;5071762;28;20486;-76
2023/08/07 11:45:04;;;;;;;7.32;1.05;;;17.50;99.90;;;;;;5072046;28;20097;-76
2023/08/07 11:47:30;;;;;;;5.50;1.00;;;17.50;99.90;;;;;;5072565;28;20021;-75
2023/08/07 11:49:55;;;;;;;7.72;1.33;;;17.50;99.90;;;;;;5071462;28;20043;-75
2023/08/07 11:52:22;;;;;;;4.32;0.93;;;17.50;99.90;;;;;;5073155;28;20417;-75
2023/08/07 11:54:49;;;;;;;1.77;0.90;;;17.30;99.90;;;;;;5071601;28;20032;-75
2023/08/07 11:57:20;;;;;;;5.40;1.65;;;17.10;99.90;;;;;;5069585;28;20028;-76
2023/08/07 11:59:49;;;;;;;3.33;1.17;;;16.80;99.90;;;;;;5072060;28;20017;-75
2023/08/07 12:02:14;;;;;;;4.32;1.08;;;16.60;99.90;;;;;;5072209;28;20444;-76
2023/08/07 12:04:40;;;;;;;4.47;1.45;;;16.40;99.90;;;;;;5070075;28;20016;-76
2023/08/07 12:07:05;;;;;;;8.07;1.83;;;16.40;99.90;;;;;;5076350;28;20109;-76
2023/08/07 12:09:31;;;;;;;6.38;1.40;;;16.30;99.90;;;;;;5071406;28;20028;-75
2023/08/07 12:12:02;;;;;;;4.68;1.65;;;16.30;99.90;;;;;;5071892;28;20032;-74
2023/08/07 12:14:31;;;;;;;8.88;2.20;;;16.40;99.90;;;;;;5071355;28;20027;-76
2023/08/07 12:16:56;;;;;;;7.60;1.98;;;16.50;99.90;;;;;;5072642;28;20035;-74
2023/08/07 12:19:22;;;;;;;5.93;1.45;;;16.70;99.90;;;;;;5070147;28;20028;-75
2023/08/07 12:21:48;;;;;;;6.25;1.40;;;17.10;99.90;;;;;;5070758;28;20028;-74
2023/08/07 12:24:13;;;;;;;4.20;1.17;;;17.30;99.90;;;;;;5070226;28;20070;-74
2023/08/07 12:26:39;;;;;;;6.05;1.95;;;17.50;99.90;;;;;;5071739;28;20033;-74
2023/08/07 12:29:04;;;;;;;3.70;1.40;;;17.60;99.90;;;;;;5072400;28;20029;-74
2023/08/07 12:31:30;;;;;;;2.72;1.80;;;17.70;99.90;;;;;;5072457;28;20458;-75
2023/08/07 12:33:55;;;;;;;2.78;0.77;;;17.90;99.90;;;;;;5068901;28;20036;-74
2023/08/07 12:36:21;;;;;;;5.32;0.80;;;18.10;99.10;;;;;;5071421;28;20033;-75
2023/08/07 12:38:47;;;;;;;3.70;1.10;;;18.10;99.50;;;;;;5070153;28;20482;-76
2023/08/07 12:41:14;;;;;;;6.07;1.38;;;18.10;99.50;;;;;;5071429;28;20036;-76
2023/08/07 12:43:39;;;;;;;7.70;1.42;;;18.00;99.70;;;;;;5072577;28;20024;-78